LIBF/FOG METAR and TAF weather

Enter ICAO airport designator
Station Type Date Time Source
LIBF METAR 2020/09/21 09:50 UTC NOAA

LIBF 210950Z VRB03KT CAVOK 28/17 Q1016


Station Type Date Time Source
LIBF Decoded METAR 2020/09/21 09:50 UTC NOAA

Station name not available
Sep 21, 2020 - 05:50 AM EDT / 2020.09.21 0950 UTC
Wind: Variable at 3 MPH (3 KT):0
Visibility: greater than 7 mile(s):0
Temperature: 82 F (28 C)
Dew Point: 62 F (17 C)
Relative Humidity: 51%
Pressure (altimeter): 30.00 in. Hg (1016 hPa)
ob: LIBF 210950Z VRB03KT CAVOK 28/17 Q1016
cycle: 10

Station Type Date Time Source
LIBF TAF 2015/04/03 06:00 UTC NOAA

TAF LIBF 030500Z 0306/0406 35014KT 9999 FEW030

Example: see airport list